This is the latest recevied weather packets stored in our database for station/object NM5PB-13. If no packets are shown the sender has not sent any weather packets the latest 1 day(s).
| Time | Temp. | Humidity | Pressure | Rain* | Wind** | Luminosity | Snow |
|---|---|---|---|---|---|---|---|
| 1777992675 | 11.67° C | 44% | 1010 hPa | 0 mm | 0 m/s | - | - |
| 1777991772 | 11.11° C | 44% | 1010 hPa | 0 mm | 0.89 m/s, 216° | - | - |
| 1777990869 | 11.11° C | 45% | 1010 hPa | 0 mm | 0.45 m/s, 245° | - | - |
| 1777989963 | 10.56° C | 47% | 1010 hPa | 0 mm | 0.45 m/s, 221° | - | - |
| 1777989060 | 10.56° C | 48% | 1010 hPa | 0 mm | 0.45 m/s, 210° | - | - |
| 1777988157 | 10° C | 49% | 1010 hPa | 0 mm | 0 m/s | - | - |
| 1777987251 | 9.44° C | 51% | 1010 hPa | 0 mm | 0 m/s | - | - |
| 1777986344 | 8.89° C | 54% | 1010 hPa | 0 mm | 0 m/s | - | - |
| 1777985430 | 7.78° C | 57% | 1011 hPa | 0 mm | 0 m/s | - | - |
| 1777984523 | 6.67° C | 64% | 1011 hPa | 0 mm | 0 m/s | - | - |
| 1777983616 | 6.11° C | 68% | 1011 hPa | 0 mm | 0 m/s | - | - |
| 1777982702 | 5.56° C | 71% | 1011 hPa | 0 mm | 0 m/s | - | - |
| 1777981800 | 5.56° C | 72% | 1010 hPa | 0 mm | 0 m/s | - | - |
| 1777980884 | 5.56° C | 71% | 1010 hPa | 0 mm | 0 m/s | - | - |
| 1777979972 | 5.56° C | 70% | 1010 hPa | 0 mm | 0 m/s | - | - |
| 1777979063 | 6.11° C | 71% | 1009 hPa | 0 mm | 0 m/s | - | - |
| 1777978157 | 6.11° C | 64% | 1009 hPa | 0 mm | 0 m/s | - | - |
| 1777977241 | 6.67° C | 61% | 1008 hPa | 0 mm | 0 m/s | - | - |
| 1777976324 | 6.67° C | 64% | 1008 hPa | 0 mm | 0 m/s | - | - |
| 1777975413 | 7.22° C | 62% | 1008 hPa | 0 mm | 0 m/s | - | - |
| 1777974502 | 7.78° C | 59% | 1009 hPa | 0 mm | 0 m/s | - | - |
* Rain latest hour (hover to see other rain measurements)
** Current wind speed in m/s (hover to see current wind gust speed)